createdAt,value
2023-01-17T00:02:21.162Z,25.30
2023-01-17T00:05:07.073Z,24.60
2023-01-17T00:07:52.731Z,23.40
2023-01-17T00:10:24.906Z,23.50
2023-01-17T00:13:03.384Z,22.20
2023-01-17T00:15:31.591Z,24.73
2023-01-17T00:17:59.345Z,20.53
2023-01-17T00:20:47.922Z,21.83
2023-01-17T00:23:39.001Z,23.70
2023-01-17T00:26:15.162Z,24.87
2023-01-17T00:28:43.537Z,20.27
2023-01-17T00:31:12.151Z,24.65
2023-01-17T00:33:39.274Z,22.85
2023-01-17T00:36:07.150Z,25.13
2023-01-17T00:38:36.665Z,21.80
2023-01-17T00:41:10.277Z,23.53
2023-01-17T00:43:55.770Z,21.27
2023-01-17T00:46:41.329Z,20.67
2023-01-17T00:49:27.717Z,19.73
2023-01-17T00:52:13.738Z,21.60
2023-01-17T00:54:59.506Z,15.23
2023-01-17T00:57:45.555Z,8.67
2023-01-17T01:00:31.602Z,7.97
2023-01-17T01:03:17.652Z,4.90
2023-01-17T01:06:03.464Z,4.87
2023-01-17T01:08:49.272Z,4.70
2023-01-17T01:11:39.656Z,3.67
2023-01-17T01:14:28.687Z,4.07
2023-01-17T01:17:14.161Z,3.33
2023-01-17T01:19:59.785Z,3.90
2023-01-17T01:22:45.415Z,3.37
2023-01-17T01:25:31.242Z,4.50
2023-01-17T01:28:29.094Z,4.03
2023-01-17T01:31:15.226Z,3.92
2023-01-17T01:33:42.183Z,3.73
2023-01-17T01:36:10.048Z,4.53
2023-01-17T01:38:37.451Z,3.63
2023-01-17T01:41:05.236Z,4.47
2023-01-17T01:43:47.295Z,4.77
2023-01-17T01:46:41.617Z,3.63
2023-01-17T01:49:17.352Z,3.83
2023-01-17T01:51:58.540Z,4.27
2023-01-17T01:54:37.191Z,3.87
2023-01-17T01:57:07.755Z,4.57
2023-01-17T01:59:39.205Z,4.33
2023-01-17T02:02:07.563Z,4.53
2023-01-17T02:04:35.318Z,4.73
2023-01-17T02:07:17.597Z,4.40
2023-01-17T02:09:44.834Z,4.10
2023-01-17T02:12:13.029Z,4.70
2023-01-17T02:14:39.889Z,4.83
2023-01-17T02:17:59.365Z,4.70
2023-01-17T02:23:36.427Z,4.50
2023-01-17T02:26:31.713Z,4.57
2023-01-17T02:29:37.788Z,4.57
2023-01-17T02:32:14.416Z,4.80
2023-01-17T02:34:54.709Z,4.80
2023-01-17T02:37:29.579Z,5.40
2023-01-17T02:40:03.045Z,5.20
2023-01-17T02:42:37.450Z,5.30
2023-01-17T02:45:05.351Z,4.70
2023-01-17T02:47:32.288Z,5.20
2023-01-17T02:50:18.551Z,5.43
2023-01-17T02:52:51.467Z,5.80
2023-01-17T02:55:39.702Z,6.43
2023-01-17T02:58:27.966Z,6.17
2023-01-17T03:01:06.883Z,6.40
2023-01-17T03:03:41.437Z,7.55
2023-01-17T03:06:20.660Z,6.33
2023-01-17T03:08:49.786Z,7.22
2023-01-17T03:11:17.454Z,7.47
2023-01-17T03:13:44.456Z,6.53
2023-01-17T03:16:21.213Z,7.30
2023-01-17T03:18:49.333Z,6.63
2023-01-17T03:21:16.858Z,6.50
2023-01-17T03:23:44.264Z,6.60
2023-01-17T03:26:11.605Z,6.73
2023-01-17T03:28:38.542Z,6.33
2023-01-17T03:31:06.061Z,6.20
2023-01-17T03:33:33.132Z,6.57
2023-01-17T03:36:00.628Z,5.63
2023-01-17T03:38:29.072Z,6.40
2023-01-17T03:40:56.333Z,6.13
2023-01-17T03:43:23.383Z,6.13
2023-01-17T03:45:52.200Z,6.30
2023-01-17T03:48:19.173Z,6.15
2023-01-17T03:50:51.443Z,6.57
2023-01-17T03:53:18.332Z,6.50
2023-01-17T03:55:46.424Z,6.23
2023-01-17T03:58:13.462Z,6.17
2023-01-17T04:00:40.688Z,6.40
2023-01-17T04:03:07.808Z,6.97
2023-01-17T04:05:35.054Z,7.40
2023-01-17T04:08:02.039Z,6.83
2023-01-17T04:10:29.190Z,6.93
2023-01-17T04:12:56.112Z,6.70
2023-01-17T04:15:23.311Z,6.27
2023-01-17T04:17:50.258Z,6.20
2023-01-17T04:20:29.160Z,5.37
2023-01-17T04:22:56.068Z,6.88
2023-01-17T04:25:23.505Z,6.00
2023-01-17T04:27:50.337Z,6.40
2023-01-17T04:30:17.584Z,6.00
2023-01-17T04:32:44.403Z,6.40
2023-01-17T04:35:11.707Z,7.70
2023-01-17T04:37:38.884Z,7.50
2023-01-17T04:40:06.597Z,5.57
2023-01-17T04:42:33.556Z,6.57
2023-01-17T04:45:00.748Z,6.17
2023-01-17T04:47:27.747Z,6.07
2023-01-17T04:49:55.094Z,5.57
2023-01-17T04:52:22.143Z,5.57
2023-01-17T04:54:49.653Z,6.03
2023-01-17T04:57:18.050Z,5.87
2023-01-17T04:59:46.317Z,6.10
2023-01-17T05:02:14.071Z,6.23
2023-01-17T05:04:41.304Z,6.10
2023-01-17T05:07:08.394Z,6.03
2023-01-17T05:09:35.575Z,6.27
2023-01-17T05:12:02.500Z,6.13
2023-01-17T05:14:29.673Z,5.90
2023-01-17T05:16:57.698Z,5.73
2023-01-17T05:19:26.412Z,6.70
2023-01-17T05:21:53.611Z,6.75
2023-01-17T05:24:21.078Z,6.23
2023-01-17T05:26:54.722Z,6.17
2023-01-17T05:29:22.115Z,6.77
2023-01-17T05:31:48.970Z,6.97
2023-01-17T05:34:17.450Z,7.13
2023-01-17T05:36:44.296Z,6.93
2023-01-17T05:39:11.421Z,6.20
2023-01-17T05:41:38.252Z,6.53
2023-01-17T05:44:05.595Z,6.57
2023-01-17T05:46:32.625Z,6.97
2023-01-17T05:48:59.852Z,6.93
2023-01-17T05:51:26.824Z,7.80
2023-01-17T05:53:54.063Z,6.90
2023-01-17T05:56:21.012Z,7.33
2023-01-17T05:58:48.278Z,9.07
2023-01-17T06:01:15.249Z,8.67
2023-01-17T06:03:42.458Z,12.30
2023-01-17T06:06:09.388Z,8.40
2023-01-17T06:08:36.948Z,9.40
2023-01-17T06:11:03.956Z,10.33
2023-01-17T06:13:31.210Z,14.30
2023-01-17T06:16:02.890Z,9.90
2023-01-17T06:18:31.341Z,11.90
2023-01-17T06:20:58.536Z,7.80
2023-01-17T06:23:25.758Z,9.43
2023-01-17T06:25:52.682Z,10.57
2023-01-17T06:28:22.845Z,13.20
2023-01-17T06:30:50.174Z,13.13
2023-01-17T06:33:17.429Z,12.90
2023-01-17T06:35:51.651Z,8.53
2023-01-17T06:38:19.338Z,10.63
2023-01-17T06:40:46.278Z,10.73
2023-01-17T06:43:13.441Z,12.07
2023-01-17T06:45:40.379Z,15.93
2023-01-17T06:48:07.748Z,20.20
2023-01-17T06:50:34.785Z,19.20
2023-01-17T06:53:04.590Z,15.10
2023-01-17T06:55:33.809Z,16.77
2023-01-17T06:58:03.173Z,11.73
2023-01-17T07:00:35.286Z,12.65
2023-01-17T07:03:02.828Z,12.00
2023-01-17T07:05:29.793Z,13.10
2023-01-17T07:07:57.755Z,9.17
2023-01-17T07:10:24.700Z,11.07
2023-01-17T07:13:00.546Z,12.43
2023-01-17T07:15:30.972Z,9.87
2023-01-17T07:18:08.743Z,8.57
2023-01-17T07:20:35.837Z,9.30
2023-01-17T07:23:03.211Z,8.77
2023-01-17T07:25:30.096Z,9.43
2023-01-17T07:27:57.962Z,12.03
2023-01-17T07:30:25.592Z,12.30
2023-01-17T07:32:55.852Z,12.53
2023-01-17T07:35:26.812Z,24.97
2023-01-17T07:37:55.715Z,33.03
2023-01-17T07:40:23.306Z,17.05
2023-01-17T07:42:50.740Z,13.53
2023-01-17T07:45:17.824Z,14.03
2023-01-17T07:47:45.076Z,19.83
2023-01-17T07:50:13.678Z,25.87
2023-01-17T07:52:41.440Z,30.58
2023-01-17T07:55:09.404Z,28.27
2023-01-17T07:57:36.712Z,24.25
2023-01-17T08:00:04.703Z,23.10
2023-01-17T08:02:31.969Z,16.83
2023-01-17T08:04:58.932Z,21.93
2023-01-17T08:07:26.203Z,23.77
2023-01-17T08:09:54.791Z,24.47
2023-01-17T08:12:21.982Z,24.10
2023-01-17T08:14:48.842Z,21.17
2023-01-17T08:17:17.179Z,19.53
2023-01-17T08:19:45.046Z,23.33
2023-01-17T08:22:12.530Z,21.13
2023-01-17T08:24:39.425Z,17.00
2023-01-17T08:27:09.041Z,16.17
2023-01-17T08:32:04.183Z,20.93
2023-01-17T08:34:33.345Z,24.80
2023-01-17T08:37:00.650Z,21.50
2023-01-17T08:39:27.743Z,17.63
2023-01-17T08:41:54.601Z,7.43
2023-01-17T08:44:21.856Z,7.73
2023-01-17T08:46:48.761Z,6.70
2023-01-17T08:49:16.140Z,6.77
2023-01-17T08:51:43.051Z,5.87
2023-01-17T08:54:12.974Z,7.30
2023-01-17T08:56:39.909Z,6.63
2023-01-17T08:59:07.255Z,7.50
2023-01-17T09:01:40.789Z,6.20
2023-01-17T09:04:09.425Z,5.37
2023-01-17T09:06:38.644Z,6.30
2023-01-17T09:09:07.443Z,5.77
2023-01-17T09:11:34.780Z,5.88
2023-01-17T09:14:01.999Z,6.10
2023-01-17T09:16:29.657Z,5.93
2023-01-17T09:18:57.846Z,6.13
2023-01-17T09:21:26.201Z,6.00
2023-01-17T09:23:54.766Z,6.47
2023-01-17T09:26:24.156Z,6.68
2023-01-17T09:28:52.131Z,8.88
2023-01-17T09:31:21.671Z,8.10
2023-01-17T09:33:50.498Z,7.97
2023-01-17T09:36:17.902Z,8.43
2023-01-17T09:38:45.245Z,8.33
2023-01-17T09:41:31.408Z,7.47
2023-01-17T09:44:18.146Z,7.93
2023-01-17T09:46:47.463Z,9.03
2023-01-17T09:49:44.037Z,10.07
2023-01-17T09:52:21.446Z,11.65
2023-01-17T09:54:49.680Z,12.53
2023-01-17T09:57:25.561Z,12.83
2023-01-17T10:00:26.787Z,7.53
2023-01-17T10:03:15.275Z,4.43
2023-01-17T10:06:10.873Z,3.33
2023-01-17T10:08:50.100Z,2.80
2023-01-17T10:11:53.438Z,2.55
2023-01-17T10:15:07.272Z,1.92
2023-01-17T10:17:55.627Z,1.17
2023-01-17T10:20:49.679Z,0.77
2023-01-17T10:23:35.515Z,1.53
2023-01-17T10:26:19.381Z,2.10
2023-01-17T10:28:53.052Z,1.70
2023-01-17T10:31:28.046Z,2.42
2023-01-17T10:34:16.575Z,2.80
2023-01-17T10:36:48.580Z,1.45
2023-01-17T10:39:28.638Z,1.07
2023-01-17T10:42:00.012Z,1.73
2023-01-17T10:44:45.758Z,2.10
2023-01-17T10:47:12.537Z,0.90
2023-01-17T10:49:44.386Z,1.47
2023-01-17T10:52:29.240Z,1.48
2023-01-17T10:55:24.213Z,1.10
2023-01-17T10:57:51.821Z,1.57
2023-01-17T11:00:59.337Z,1.60
2023-01-17T11:03:28.755Z,2.08
2023-01-17T11:06:15.223Z,2.42
2023-01-17T11:08:59.741Z,2.15
2023-01-17T11:11:32.543Z,1.70
2023-01-17T11:14:15.749Z,2.85
2023-01-17T11:16:43.868Z,2.25
2023-01-17T11:19:10.712Z,2.23
2023-01-17T11:21:39.651Z,2.75
2023-01-17T11:24:16.156Z,2.53
2023-01-17T11:26:49.603Z,2.38
2023-01-17T11:29:37.220Z,1.90
2023-01-17T11:32:36.660Z,2.13
2023-01-17T11:35:21.910Z,1.95
2023-01-17T11:37:52.180Z,2.00
2023-01-17T11:40:36.963Z,2.28
2023-01-17T11:43:14.436Z,2.10
2023-01-17T11:45:41.945Z,2.55
2023-01-17T11:48:09.160Z,2.30
2023-01-17T11:50:38.912Z,3.00
2023-01-17T11:53:13.719Z,2.88
2023-01-17T11:55:51.623Z,2.63
2023-01-17T11:58:20.717Z,3.07
2023-01-17T12:01:02.245Z,2.58
2023-01-17T12:03:38.660Z,2.08
2023-01-17T12:06:20.644Z,2.47
2023-01-17T12:09:32.405Z,2.60
2023-01-17T12:12:23.722Z,2.95
2023-01-17T12:15:11.960Z,2.88
2023-01-17T12:18:16.278Z,4.05
2023-01-17T12:21:14.628Z,2.53
2023-01-17T12:23:47.337Z,3.08
2023-01-17T12:26:19.787Z,2.88
2023-01-17T12:29:12.911Z,3.10
2023-01-17T12:31:53.138Z,3.90
2023-01-17T12:34:41.988Z,3.22
2023-01-17T12:37:29.734Z,3.28
2023-01-17T12:40:03.532Z,4.10
2023-01-17T12:42:40.769Z,3.78
2023-01-17T12:45:13.435Z,3.33
2023-01-17T12:47:47.508Z,3.72
2023-01-17T12:50:28.637Z,4.03
2023-01-17T12:53:12.619Z,3.78
2023-01-17T12:55:58.745Z,2.83
2023-01-17T12:58:30.560Z,4.13
2023-01-17T13:01:13.125Z,7.18
2023-01-17T13:03:57.816Z,4.13
2023-01-17T13:06:31.603Z,4.00
2023-01-17T13:09:02.914Z,3.67
2023-01-17T13:11:43.842Z,5.25
2023-01-17T13:14:11.028Z,4.75
2023-01-17T13:16:59.270Z,5.90
2023-01-17T13:19:44.776Z,4.50
2023-01-17T13:22:17.882Z,2.80
2023-01-17T13:25:15.350Z,3.10
2023-01-17T13:27:47.977Z,4.03
2023-01-17T13:30:30.859Z,7.90
2023-01-17T13:33:15.793Z,2.42
2023-01-17T13:36:10.263Z,3.13
2023-01-17T13:38:57.706Z,2.33
2023-01-17T13:41:36.951Z,3.17
2023-01-17T13:44:23.106Z,2.75
2023-01-17T13:47:04.380Z,2.47
2023-01-17T13:49:34.319Z,2.47
2023-01-17T13:52:11.058Z,2.88
2023-01-17T13:54:45.925Z,2.28
2023-01-17T13:57:30.281Z,2.17
2023-01-17T13:59:59.153Z,9.25
2023-01-17T14:02:32.480Z,7.47
2023-01-17T14:05:11.892Z,14.75
2023-01-17T14:07:48.026Z,12.57
2023-01-17T14:10:38.180Z,23.42
2023-01-17T14:13:24.991Z,10.05
2023-01-17T14:15:52.334Z,10.00
2023-01-17T14:18:42.219Z,8.20
2023-01-17T14:21:44.324Z,6.20
2023-01-17T14:24:13.112Z,5.30
2023-01-17T14:26:46.499Z,7.68
2023-01-17T14:29:47.829Z,4.65
2023-01-17T14:32:23.769Z,4.28
2023-01-17T14:34:52.804Z,4.10
2023-01-17T14:37:32.164Z,5.65
2023-01-17T14:40:01.100Z,7.20
2023-01-17T14:42:33.212Z,5.85
2023-01-17T14:45:13.535Z,4.93
2023-01-17T14:47:45.706Z,5.57
2023-01-17T14:50:22.246Z,5.20
2023-01-17T14:53:28.784Z,4.90
2023-01-17T14:56:17.148Z,8.00
2023-01-17T14:58:46.573Z,3.83
2023-01-17T15:01:20.809Z,5.97
2023-01-17T15:03:55.439Z,4.27
2023-01-17T15:06:27.905Z,4.43
2023-01-17T15:08:54.807Z,4.43
2023-01-17T15:11:26.004Z,8.93
2023-01-17T15:13:57.506Z,7.33
2023-01-17T15:16:28.350Z,5.60
2023-01-17T15:18:57.250Z,5.23
2023-01-17T15:24:00.028Z,14.40
2023-01-17T15:26:31.869Z,8.83
2023-01-17T15:29:07.708Z,7.67
2023-01-17T15:32:08.055Z,7.07
2023-01-17T15:34:43.413Z,6.97
2023-01-17T15:37:40.675Z,4.25
2023-01-17T15:40:19.303Z,5.23
2023-01-17T15:42:53.097Z,7.47
2023-01-17T15:45:25.041Z,6.43
2023-01-17T15:47:52.213Z,7.57
2023-01-17T15:50:30.867Z,7.43
2023-01-17T15:53:01.271Z,8.20
2023-01-17T15:55:35.249Z,8.03
2023-01-17T15:58:04.477Z,6.07
2023-01-17T16:00:38.459Z,53.50
2023-01-17T16:03:17.657Z,7.83
2023-01-17T16:05:44.917Z,9.35
2023-01-17T16:08:12.093Z,8.90
2023-01-17T16:10:39.573Z,8.03
2023-01-17T16:13:09.019Z,9.90
2023-01-17T16:15:37.833Z,8.43
2023-01-17T16:20:49.973Z,7.90
2023-01-17T16:23:17.299Z,6.53
2023-01-17T16:25:44.608Z,8.77
2023-01-17T16:28:11.831Z,5.63
2023-01-17T16:30:39.031Z,15.47
2023-01-17T16:33:06.320Z,10.53
2023-01-17T16:35:34.174Z,13.60
2023-01-17T16:38:04.429Z,8.57
2023-01-17T16:40:38.685Z,12.57
2023-01-17T16:43:05.936Z,13.37
2023-01-17T16:45:40.950Z,6.40
2023-01-17T16:48:09.088Z,8.97
2023-01-17T16:50:41.405Z,8.27
2023-01-17T16:53:08.852Z,10.07
2023-01-17T16:55:35.719Z,8.40
2023-01-17T16:58:02.936Z,13.17
2023-01-17T17:00:29.860Z,18.97
2023-01-17T17:02:57.686Z,21.07
2023-01-17T17:05:26.085Z,22.73
2023-01-17T17:07:54.021Z,19.90
2023-01-17T17:10:25.024Z,16.30
2023-01-17T17:12:52.288Z,19.77
2023-01-17T17:15:19.557Z,17.87
2023-01-17T17:17:48.114Z,17.50
2023-01-17T17:20:15.919Z,15.93
2023-01-17T17:22:49.290Z,15.47
2023-01-17T17:25:16.692Z,21.63
2023-01-17T17:27:43.865Z,43.17
2023-01-17T17:30:11.464Z,44.90
2023-01-17T17:32:38.823Z,42.07
2023-01-17T17:35:06.362Z,30.97
2023-01-17T17:37:34.441Z,22.90
2023-01-17T17:40:01.296Z,31.37
2023-01-17T17:42:28.487Z,28.90
2023-01-17T17:44:55.429Z,29.17
2023-01-17T17:47:24.051Z,30.30
2023-01-17T17:49:50.953Z,21.08
2023-01-17T17:52:18.207Z,27.03
2023-01-17T17:54:45.036Z,22.07
2023-01-17T17:57:12.311Z,26.97
2023-01-17T17:59:39.379Z,31.20
2023-01-17T18:02:06.835Z,30.77
2023-01-17T18:04:33.804Z,42.23
2023-01-17T18:07:00.978Z,87.27
2023-01-17T18:09:28.153Z,113.43
2023-01-17T18:11:55.497Z,128.67
2023-01-17T18:14:24.092Z,122.10
2023-01-17T18:16:51.668Z,97.55
2023-01-17T18:19:22.096Z,75.83
2023-01-17T18:21:52.937Z,73.73
2023-01-17T18:24:24.447Z,71.13
2023-01-17T18:26:54.256Z,70.47
2023-01-17T18:29:22.164Z,81.03
2023-01-17T18:31:51.948Z,78.57
2023-01-17T18:34:24.460Z,56.43
2023-01-17T18:36:52.292Z,56.23
2023-01-17T18:39:22.410Z,45.97
2023-01-17T18:41:49.628Z,50.60
2023-01-17T18:44:16.934Z,49.57
2023-01-17T18:46:44.140Z,49.90
2023-01-17T18:49:12.244Z,51.73
2023-01-17T18:51:39.581Z,58.72
2023-01-17T18:54:08.953Z,62.33
2023-01-17T18:56:36.312Z,71.30
2023-01-17T18:59:05.880Z,54.87
2023-01-17T19:01:35.977Z,43.67
2023-01-17T19:04:05.291Z,51.37
2023-01-17T19:06:38.745Z,95.50
2023-01-17T19:09:07.603Z,68.43
2023-01-17T19:14:02.862Z,43.23
2023-01-17T19:16:33.025Z,49.42
2023-01-17T19:19:06.968Z,59.90
2023-01-17T19:21:34.537Z,53.37
2023-01-17T19:24:01.855Z,59.50
2023-01-17T19:26:30.107Z,44.10
2023-01-17T19:28:59.025Z,44.10
2023-01-17T19:33:57.548Z,34.43
2023-01-17T19:36:28.294Z,27.90
2023-01-17T19:39:04.538Z,40.70
2023-01-17T19:41:35.651Z,58.67
2023-01-17T19:44:05.543Z,69.43
2023-01-17T19:46:33.747Z,71.30
2023-01-17T19:49:01.044Z,79.33
2023-01-17T19:51:28.595Z,92.67
2023-01-17T19:53:56.627Z,81.40
2023-01-17T19:56:26.063Z,83.57
2023-01-17T20:01:25.297Z,71.23
2023-01-17T20:03:52.860Z,70.50
2023-01-17T20:06:22.845Z,62.60
2023-01-17T20:08:49.958Z,69.83
2023-01-17T20:11:19.782Z,65.33
2023-01-17T20:13:48.502Z,64.00
2023-01-17T20:16:17.492Z,66.10
2023-01-17T20:18:45.239Z,62.45
2023-01-17T20:21:13.878Z,59.20
2023-01-17T20:23:43.245Z,44.40
2023-01-17T20:26:12.043Z,48.37
2023-01-17T20:28:41.290Z,45.20
2023-01-17T20:31:19.846Z,38.60
2023-01-17T20:33:50.339Z,30.23
2023-01-17T20:36:19.307Z,34.53
2023-01-17T20:38:46.611Z,83.93
2023-01-17T20:41:18.787Z,88.50
2023-01-17T20:43:54.683Z,57.77
2023-01-17T20:46:24.909Z,54.07
2023-01-17T20:48:57.955Z,40.53
2023-01-17T20:51:26.745Z,40.67
2023-01-17T20:53:59.852Z,47.28
2023-01-17T20:56:27.696Z,59.57
2023-01-17T20:58:54.996Z,50.33
2023-01-17T21:01:22.823Z,45.73
2023-01-17T21:03:53.128Z,41.40
2023-01-17T21:06:24.453Z,38.23
2023-01-17T21:08:52.767Z,41.93
2023-01-17T21:11:23.283Z,31.27
2023-01-17T21:13:51.439Z,34.70
2023-01-17T21:16:21.234Z,29.40
2023-01-17T21:18:50.139Z,28.17
2023-01-17T21:23:45.818Z,25.50
2023-01-17T21:26:15.024Z,27.40
2023-01-17T21:28:44.138Z,28.10
2023-01-17T21:31:19.629Z,28.77
2023-01-17T21:33:47.760Z,29.00
2023-01-17T21:36:15.061Z,30.77
2023-01-17T21:38:42.323Z,28.17
2023-01-17T21:41:09.608Z,33.47
2023-01-17T21:43:36.502Z,62.00
2023-01-17T21:46:04.877Z,41.47
2023-01-17T21:48:32.326Z,38.97
2023-01-17T21:51:07.202Z,27.03
2023-01-17T21:53:38.836Z,33.70
2023-01-17T21:56:29.227Z,33.40
2023-01-17T21:58:57.305Z,32.27
2023-01-17T22:01:30.206Z,35.05
2023-01-17T22:03:59.194Z,33.93
2023-01-17T22:06:29.284Z,34.53
2023-01-17T22:08:56.547Z,52.27
2023-01-17T22:11:26.381Z,85.07
2023-01-17T22:13:53.690Z,93.07
2023-01-17T22:16:23.673Z,105.57
2023-01-17T22:18:51.488Z,102.63
2023-01-17T22:21:21.869Z,86.03
2023-01-17T22:23:59.450Z,48.07
2023-01-17T22:26:31.515Z,53.43
2023-01-17T22:29:02.382Z,54.13
2023-01-17T22:31:29.619Z,57.83
2023-01-17T22:34:05.103Z,36.73
2023-01-17T22:36:33.388Z,29.37
2023-01-17T22:39:00.752Z,24.97
2023-01-17T22:41:29.929Z,24.60
2023-01-17T22:43:59.598Z,21.20
2023-01-17T22:46:29.041Z,23.30
2023-01-17T22:48:56.900Z,22.50
2023-01-17T22:51:24.929Z,20.90
2023-01-17T22:53:55.125Z,22.47
2023-01-17T22:56:26.543Z,22.53
2023-01-17T22:58:53.747Z,19.33
2023-01-17T23:01:25.705Z,19.07
2023-01-17T23:04:01.424Z,17.20
2023-01-17T23:06:37.257Z,13.93
2023-01-17T23:09:07.504Z,14.57
2023-01-17T23:11:40.755Z,13.90
2023-01-17T23:14:16.733Z,13.70
2023-01-17T23:17:22.542Z,13.93
2023-01-17T23:19:52.068Z,15.37
2023-01-17T23:22:24.306Z,15.83
2023-01-17T23:25:01.345Z,15.20
2023-01-17T23:27:51.418Z,14.57
2023-01-17T23:30:21.483Z,14.90
2023-01-17T23:33:00.726Z,14.80
2023-01-17T23:38:15.197Z,15.23
2023-01-17T23:40:42.712Z,12.87
2023-01-17T23:43:25.678Z,12.97
2023-01-17T23:45:54.541Z,13.30
2023-01-17T23:50:50.890Z,8.98
2023-01-17T23:53:23.134Z,9.27
2023-01-17T23:55:52.063Z,8.63
